Mct Breithorn — HBHC — position and weather

sailwx.info

Track history (hours):
 
Tides and Currents Weather Stations Pressure Air Temp Water Temp Dewpoint Dewpoint Depression Visibility Wind Speed Wind Dir Waves Ship Positions

Mct Breithorn

Last reported at 2015-Apr-22 15:20 UTC. Time now 2015-May-04 00:58 UTC.
Position N 37°22' E 025°55'.
Warning: this ship's position is 11 days out of date.

Length 165 m; draft 9.5 m.

Type: Ship (hazmat cat D). MMSI: 269848000.

Date/timePositionNaut miles runAvg speedWind from/ knotsBaromVisibWave heightAir tempDewpointWater temp
2015-Apr-22 15:20N 37°22' E 025°55'911.8
2015-Apr-22 14:33N 37°31' E 025°50'1211.8
2015-Apr-22 13:33N 37°42' E 025°45'242 7.6
2015-Apr-21 05:31N 40°56' E 028°52'0 0.0
2015-Apr-21 03:30N 40°56' E 028°52'0 0.1
2015-Apr-21 01:30N 40°56' E 028°52'2 2.3
2015-Apr-21 00:32N 40°57' E 028°55'21 9.1
2015-Apr-20 22:12N 41°16' E 029°06'6 0.6
2015-Apr-20 12:17N 41°17' E 028°58'25 9.1
2015-Apr-20 09:33N 41°25' E 029°29'  
Track history (hours):
 
Tides and Currents Weather Stations Pressure Air Temp Water Temp Dewpoint Dewpoint Depression Visibility Wind Speed Wind Dir Waves Ship Positions

Mct Breithorn

Last reported at 2015-Apr-22 15:20 UTC. Time now 2015-May-04 00:58 UTC.
Position N 37°22' E 025°55'.
Warning: this ship's position is 11 days out of date.

Length 165 m; draft 9.5 m.

Type: Ship (hazmat cat D). MMSI: 269848000.

Date/timePositionNaut miles runAvg speedWind from/ knotsBaromVisibWave heightAir tempDewpointWater temp
2015-Apr-22 15:20N 37°22' E 025°55'911.8
2015-Apr-22 14:33N 37°31' E 025°50'1211.8
2015-Apr-22 13:33N 37°42' E 025°45'242 7.6
2015-Apr-21 05:31N 40°56' E 028°52'0 0.0
2015-Apr-21 03:30N 40°56' E 028°52'0 0.1
2015-Apr-21 01:30N 40°56' E 028°52'2 2.3
2015-Apr-21 00:32N 40°57' E 028°55'21 9.1
2015-Apr-20 22:12N 41°16' E 029°06'6 0.6
2015-Apr-20 12:17N 41°17' E 028°58'25 9.1
2015-Apr-20 09:33N 41°25' E 029°29'  

Dump ship's entire track history